Time;durP1;ratioP1;P1;durP2;ratioP2;P2;SDS_P1;SDS_P2;PMS_P1;PMS_P2;Temp;Humidity;BMP_temperature;BMP_pressure;BME280_temperature;BME280_humidity;BME280_pressure;Samples;Min_cycle;Max_cycle;Signal;HPM_P1;HPM_P2
2022/12/10 00:01:14;;;;;;;20.40;8.35;;;;;;;7.39;100.00;96451.16;4505189;31;20155;-78
2022/12/10 00:03:41;;;;;;;25.88;9.40;;;;;;;7.81;100.00;96453.06;4505259;31;20080;-78
2022/12/10 00:06:15;;;;;;;23.48;9.10;;;;;;;7.56;100.00;96449.41;4519434;31;20095;-78
2022/12/10 00:08:42;;;;;;;22.48;9.48;;;;;;;7.55;100.00;96463.97;4519674;31;20563;-76
2022/12/10 00:11:11;;;;;;;24.58;9.40;;;;;;;7.54;100.00;96467.44;4519315;31;20099;-76
2022/12/10 00:13:38;;;;;;;24.98;9.48;;;;;;;7.65;100.00;96459.13;4517838;31;20072;-76
2022/12/10 00:16:08;;;;;;;22.95;8.75;;;;;;;7.92;100.00;96477.28;4518171;31;20099;-76
2022/12/10 00:18:35;;;;;;;22.48;9.45;;;;;;;7.81;100.00;96470.19;4518301;31;20464;-76
2022/12/10 00:21:04;;;;;;;22.20;8.88;;;;;;;7.73;100.00;96480.91;4519007;31;20084;-76
2022/12/10 00:23:32;;;;;;;23.38;9.15;;;;;;;7.28;100.00;96484.28;4505010;31;20071;-76
2022/12/10 00:26:09;;;;;;;23.30;9.40;;;;;;;7.37;100.00;96483.78;4519276;31;20087;-76
2022/12/10 00:28:36;;;;;;;19.03;8.67;;;;;;;7.69;100.00;96499.12;4518310;31;20112;-76
2022/12/10 00:31:10;;;;;;;19.90;8.85;;;;;;;7.51;100.00;96498.41;4491882;31;20155;-76
2022/12/10 00:33:37;;;;;;;22.75;9.23;;;;;;;7.40;100.00;96500.72;4519066;31;20099;-76
2022/12/10 00:36:12;;;;;;;22.23;9.73;;;;;;;7.23;100.00;96507.63;4519328;31;20144;-76
2022/12/10 00:38:39;;;;;;;21.77;10.13;;;;;;;7.25;100.00;96521.19;4519449;31;20088;-76
2022/12/10 00:41:10;;;;;;;23.55;10.07;;;;;;;7.34;100.00;96531.88;4518997;31;20102;-76
2022/12/10 00:43:37;;;;;;;22.85;9.98;;;;;;;7.53;100.00;96530.75;4519063;31;20071;-76
2022/12/10 00:46:04;;;;;;;22.70;9.15;;;;;;;7.42;100.00;96530.53;4519245;31;20149;-76
2022/12/10 00:48:31;;;;;;;18.70;8.60;;;;;;;7.02;100.00;96528.44;4519223;31;20095;-76
2022/12/10 00:50:59;;;;;;;18.90;8.07;;;;;;;6.75;100.00;96516.16;4504676;31;20101;-76
2022/12/10 00:53:27;;;;;;;19.05;8.38;;;;;;;6.96;100.00;96525.28;4519027;31;20147;-76
2022/12/10 00:55:55;;;;;;;16.27;7.60;;;;;;;7.10;100.00;96534.81;4519089;31;20091;-76
2022/12/10 00:58:22;;;;;;;17.08;7.25;;;;;;;7.08;100.00;96521.25;4504916;31;20470;-76
2022/12/10 01:00:49;;;;;;;18.10;7.45;;;;;;;7.08;100.00;96528.94;4519016;31;20079;-76
2022/12/10 01:03:16;;;;;;;15.95;7.87;;;;;;;7.11;100.00;96540.78;4518944;31;20139;-76
2022/12/10 01:05:43;;;;;;;19.12;7.60;;;;;;;7.33;100.00;96548.16;4519019;31;20084;-76
2022/12/10 01:08:10;;;;;;;17.67;8.43;;;;;;;7.41;100.00;96544.25;4504783;31;20172;-76
2022/12/10 01:10:38;;;;;;;16.45;7.87;;;;;;;7.21;100.00;96547.06;4518837;31;20437;-76
2022/12/10 01:13:05;;;;;;;15.52;7.03;;;;;;;7.32;100.00;96552.44;4504597;31;20457;-76
2022/12/10 01:15:37;;;;;;;16.25;7.20;;;;;;;7.20;100.00;96548.81;4518792;31;20146;-76
2022/12/10 01:18:04;;;;;;;15.07;7.32;;;;;;;7.67;100.00;96560.84;4519083;31;20079;-76
2022/12/10 01:20:34;;;;;;;13.38;6.03;;;;;;;7.79;100.00;96567.84;4518539;31;20155;-77
2022/12/10 01:23:01;;;;;;;12.05;5.60;;;;;;;7.17;100.00;96555.84;4518831;31;20103;-76
2022/12/10 01:25:28;;;;;;;;;;;;;;;6.72;100.00;96553.94;4518310;31;20080;-76
2022/12/10 01:27:55;;;;;;;11.95;5.18;;;;;;;6.70;100.00;96553.16;4504766;31;20040;-76
2022/12/10 01:30:22;;;;;;;;;;;;;;;6.56;100.00;96553.88;4518829;31;20110;-76
2022/12/10 01:32:48;;;;;;;12.00;5.50;;;;;;;6.39;100.00;96562.44;4518794;31;20332;-76
2022/12/10 01:35:15;;;;;;;;;;;;;;;6.54;100.00;96571.06;4518933;31;20453;-76
2022/12/10 01:37:42;;;;;;;10.45;4.05;;;;;;;6.62;100.00;96574.91;4518774;31;20250;-76
2022/12/10 01:40:09;;;;;;;;;;;;;;;6.35;100.00;96566.03;4518803;31;20084;-76
2022/12/10 01:42:36;;;;;;;12.20;5.10;;;;;;;6.38;100.00;96578.69;4518743;31;19975;-76
2022/12/10 01:45:05;;;;;;;;;;;;;;;6.43;100.00;96573.34;4518866;31;20106;-76
2022/12/10 01:47:32;;;;;;;10.65;4.57;;;;;;;6.49;100.00;96571.31;4504450;31;19983;-77
2022/12/10 01:50:00;;;;;;;10.27;4.53;;;;;;;6.53;100.00;96565.13;4518441;31;20103;-77
2022/12/10 01:52:27;;;;;;;10.60;4.25;;;;;;;6.66;100.00;96576.41;4518334;31;20098;-76
2022/12/10 01:54:54;;;;;;;11.05;4.07;;;;;;;6.59;100.00;96572.50;4518328;31;20453;-76
2022/12/10 01:57:24;;;;;;;11.95;4.87;;;;;;;6.20;100.00;96569.34;4518407;31;20103;-77
2022/12/10 01:59:58;;;;;;;10.10;4.30;;;;;;;6.65;100.00;96577.31;4518311;31;20092;-76
2022/12/10 02:02:44;;;;;;;9.93;4.37;;;;;;;6.70;100.00;96578.78;4503927;31;20076;-76
2022/12/10 02:05:29;;;;;;;11.70;4.15;;;;;;;6.32;100.00;96569.56;4518423;31;20206;-76
2022/12/10 02:08:28;;;;;;;9.93;4.00;;;;;;;6.09;100.00;96559.62;4518367;31;20099;-76
2022/12/10 02:11:17;;;;;;;10.10;4.18;;;;;;;6.36;100.00;96575.38;4490836;31;20152;-76
2022/12/10 02:14:05;;;;;;;10.73;4.65;;;;;;;6.65;100.00;96574.75;4503841;31;20103;-76
2022/12/10 02:16:32;;;;;;;9.95;4.25;;;;;;;6.51;100.00;96578.91;4503965;31;20119;-77
2022/12/10 02:19:38;;;;;;;9.13;4.10;;;;;;;6.53;100.00;96575.38;4518050;31;20109;-76
2022/12/10 02:22:06;;;;;;;10.63;4.10;;;;;;;6.61;100.00;96573.25;4517642;31;20399;-76
2022/12/10 02:24:35;;;;;;;10.45;3.72;;;;;;;6.43;100.00;96574.16;4503692;31;20468;-76
2022/12/10 02:27:13;;;;;;;9.15;3.85;;;;;;;6.22;100.00;96563.25;4517926;31;20115;-76
2022/12/10 02:29:41;;;;;;;9.60;3.87;;;;;;;5.96;100.00;96564.50;4503684;31;20099;-76
2022/12/10 02:32:16;;;;;;;10.48;4.00;;;;;;;5.85;100.00;96574.41;4503629;31;20084;-76
2022/12/10 02:34:51;;;;;;;10.82;4.25;;;;;;;6.26;100.00;96579.28;4503545;31;20075;-76
2022/12/10 02:37:30;;;;;;;8.52;3.80;;;;;;;6.56;100.00;96588.00;4518439;31;20111;-76
2022/12/10 02:40:00;;;;;;;9.20;3.67;;;;;;;7.04;100.00;96591.56;4505744;31;20156;-76
2022/12/10 02:42:28;;;;;;;10.07;3.75;;;;;;;6.93;100.00;96589.56;4505792;31;20092;-76
2022/12/10 02:44:56;;;;;;;9.07;3.40;;;;;;;6.59;100.00;96593.00;4520106;31;20090;-76
2022/12/10 02:47:24;;;;;;;9.15;3.58;;;;;;;6.37;100.00;96575.28;4505776;31;20156;-76
2022/12/10 02:49:53;;;;;;;9.18;3.65;;;;;;;6.24;100.00;96587.03;4505609;31;20480;-76
2022/12/10 02:52:20;;;;;;;8.43;3.45;;;;;;;6.11;100.00;96585.16;4505774;31;20083;-76
2022/12/10 02:54:49;;;;;;;10.57;4.03;;;;;;;6.43;100.00;96591.28;4519881;31;20076;-76
2022/12/10 02:57:24;;;;;;;9.05;3.47;;;;;;;5.93;100.00;96577.44;4520051;31;20092;-76
2022/12/10 03:00:09;;;;;;;9.48;3.80;;;;;;;6.07;100.00;96567.38;4520058;31;20106;-76
2022/12/10 03:03:06;;;;;;;9.65;3.80;;;;;;;5.92;100.00;96565.53;4519940;31;20095;-76
2022/12/10 03:05:40;;;;;;;9.30;3.83;;;;;;;6.44;100.00;96575.00;4513212;31;20102;-76
2022/12/10 03:08:15;;;;;;;10.55;3.67;;;;;;;6.13;100.00;96568.81;4505641;31;20100;-76
2022/12/10 03:11:11;;;;;;;9.25;4.05;;;;;;;5.94;100.00;96576.53;4505532;31;20141;-76
2022/12/10 03:13:43;;;;;;;11.65;4.28;;;;;;;6.31;100.00;96585.84;4519791;31;20198;-76
2022/12/10 03:16:10;;;;;;;12.18;4.72;;;;;;;6.38;100.00;96597.47;4505712;31;20429;-76
2022/12/10 03:18:38;;;;;;;12.23;4.70;;;;;;;6.13;100.00;96608.94;4505600;31;20103;-76
2022/12/10 03:21:06;;;;;;;12.43;5.22;;;;;;;6.49;100.00;96603.78;4505235;31;20126;-76
2022/12/10 03:23:36;;;;;;;11.85;4.90;;;;;;;6.34;100.00;96606.19;4519598;31;20083;-76
2022/12/10 03:26:03;;;;;;;12.98;5.68;;;;;;;6.28;100.00;96606.50;4505584;31;20114;-76
2022/12/10 03:28:38;;;;;;;12.77;5.68;;;;;;;6.20;100.00;96600.09;4505433;31;20370;-77
2022/12/10 03:31:06;;;;;;;13.25;5.95;;;;;;;6.43;100.00;96604.91;4519692;31;20355;-76
2022/12/10 03:33:33;;;;;;;13.98;5.82;;;;;;;6.71;100.00;96616.37;4518574;31;20374;-76
2022/12/10 03:36:00;;;;;;;15.27;5.75;;;;;;;6.26;100.00;96618.53;4519626;31;20084;-76
2022/12/10 03:38:27;;;;;;;14.43;6.30;;;;;;;6.51;100.00;96623.31;4505345;31;20099;-76
2022/12/10 03:40:54;;;;;;;14.60;6.03;;;;;;;6.54;100.00;96630.00;4519619;31;20087;-77
2022/12/10 03:43:22;;;;;;;11.98;5.45;;;;;;;6.24;100.00;96630.59;4519594;31;20084;-76
2022/12/10 03:45:48;;;;;;;13.82;5.15;;;;;;;5.95;100.00;96621.72;4519688;31;20152;-76
2022/12/10 03:48:15;;;;;;;10.80;4.47;;;;;;;5.58;100.00;96608.94;4519075;31;20083;-76
2022/12/10 03:50:42;;;;;;;11.88;4.45;;;;;;;6.00;100.00;96612.09;4519514;31;20156;-76
2022/12/10 03:53:10;;;;;;;11.00;4.40;;;;;;;5.96;100.00;96620.00;4519540;31;20440;-76
2022/12/10 03:55:37;;;;;;;11.00;4.53;;;;;;;5.59;100.00;96629.34;4519471;31;20084;-77
2022/12/10 03:58:04;;;;;;;11.50;4.18;;;;;;;5.44;100.00;96636.00;4519616;31;20445;-76
2022/12/10 04:00:31;;;;;;;;;;;;;;;5.60;100.00;96640.41;4519812;31;20083;-76
2022/12/10 04:02:58;;;;;;;12.15;4.22;;;;;;;5.38;100.00;96636.25;4519568;31;20363;-77
2022/12/10 04:05:25;;;;;;;10.90;4.70;;;;;;;5.23;100.00;96622.44;4519521;31;20076;-76
2022/12/10 04:07:52;;;;;;;12.50;4.78;;;;;;;5.60;100.00;96625.03;4519489;31;20110;-76
2022/12/10 04:10:19;;;;;;;12.70;4.70;;;;;;;5.73;100.00;96621.84;4519351;31;20091;-76
2022/12/10 04:16:26;;;;;;;12.43;5.53;;;;;;;5.76;100.00;96619.16;4505192;31;20091;-76
2022/12/10 04:18:18;;;;;;;13.65;5.60;;;;;;;6.08;100.00;96625.37;4519465;31;20152;-77
2022/12/10 04:29:01;;;;;;;13.80;5.78;;;;;;;5.57;100.00;96630.31;4519284;31;20096;-78
2022/12/10 04:31:28;;;;;;;12.40;4.97;;;;;;;5.79;100.00;96642.06;4519376;31;20712;-78
2022/12/10 04:33:55;;;;;;;;;;;;;;;5.73;100.00;96638.94;4519570;31;20806;-78
2022/12/10 04:36:22;;;;;;;13.68;5.80;;;;;;;5.81;100.00;96647.09;4519317;31;19971;-78
2022/12/10 04:38:49;;;;;;;11.18;4.60;;;;;;;4.95;100.00;96652.63;4519164;31;20378;-78
2022/12/10 04:41:16;;;;;;;15.60;6.40;;;;;;;4.90;100.00;96645.16;4519235;31;20106;-78
2022/12/10 04:43:42;;;;;;;;;;;;;;;5.45;100.00;96642.75;4519524;31;20453;-78
2022/12/10 04:46:10;;;;;;;13.77;6.30;;;;;;;5.05;100.00;96638.56;4519386;31;19963;-78
2022/12/10 04:48:37;;;;;;;11.48;5.12;;;;;;;5.37;100.00;96642.25;4504908;31;20112;-78
2022/12/10 04:51:04;;;;;;;13.02;5.12;;;;;;;5.23;100.00;96642.06;4519127;31;20425;-78
2022/12/10 04:53:31;;;;;;;13.57;5.70;;;;;;;5.27;100.00;96646.13;4519070;31;20106;-77
2022/12/10 04:55:58;;;;;;;12.75;5.75;;;;;;;5.32;100.00;96649.31;4519151;31;20079;-78
2022/12/10 04:58:30;;;;;;;14.82;5.95;;;;;;;5.36;100.00;96648.28;4519116;31;20458;-78
2022/12/10 05:01:04;;;;;;;13.52;6.28;;;;;;;5.56;100.00;96641.44;4517927;31;20151;-78
2022/12/10 05:03:31;;;;;;;14.93;6.03;;;;;;;5.46;100.00;96633.34;4517821;31;20096;-78
2022/12/10 05:06:02;;;;;;;13.95;5.55;;;;;;;5.22;100.00;96640.41;4519060;31;20404;-78
2022/12/10 05:08:29;;;;;;;13.50;5.55;;;;;;;4.84;100.00;96647.97;4504778;31;20478;-78
2022/12/10 05:11:10;;;;;;;13.18;5.47;;;;;;;5.09;100.00;96654.59;4518857;31;20486;-78
2022/12/10 05:13:37;;;;;;;13.90;5.53;;;;;;;4.87;100.00;96647.00;4517901;31;20087;-78
2022/12/10 05:16:06;;;;;;;13.68;6.05;;;;;;;4.66;100.00;96646.19;4504629;31;20076;-78
2022/12/10 05:18:33;;;;;;;16.90;6.45;;;;;;;4.97;100.00;96661.06;4518871;31;20096;-78
2022/12/10 05:21:06;;;;;;;15.82;5.82;;;;;;;5.23;100.00;96658.22;4518458;31;20083;-78
2022/12/10 05:23:36;;;;;;;14.85;5.95;;;;;;;4.91;100.00;96656.22;4518732;31;20088;-78
2022/12/10 05:26:06;;;;;;;14.55;6.25;;;;;;;4.98;100.00;96659.31;4519009;31;20076;-78
2022/12/10 05:28:37;;;;;;;21.23;7.45;;;;;;;5.26;100.00;96658.97;4518981;31;20091;-78
2022/12/10 05:31:05;;;;;;;16.15;6.95;;;;;;;5.25;100.00;96660.72;4518740;31;20099;-78
2022/12/10 05:33:32;;;;;;;16.75;6.97;;;;;;;4.92;100.00;96668.09;4518822;31;20124;-78
2022/12/10 05:36:01;;;;;;;20.27;8.23;;;;;;;4.58;100.00;96651.62;4518524;31;20088;-78
2022/12/10 05:38:30;;;;;;;16.35;6.90;;;;;;;4.89;100.00;96661.41;4517602;31;20095;-78
2022/12/10 05:41:04;;;;;;;19.90;8.52;;;;;;;4.66;100.00;96664.06;4518528;31;20141;-78
2022/12/10 05:43:31;;;;;;;20.58;8.43;;;;;;;4.90;100.00;96672.44;4517347;31;20088;-78
2022/12/10 05:45:59;;;;;;;;;;;;;;;5.07;100.00;96671.72;4518949;31;20129;-78
2022/12/10 05:48:26;;;;;;;18.10;7.43;;;;;;;5.02;100.00;96660.88;4518749;31;19998;-78
2022/12/10 05:50:53;;;;;;;20.20;7.87;;;;;;;5.36;99.92;96668.75;4518391;31;20132;-77
2022/12/10 05:53:19;;;;;;;;;;;;;;;4.88;100.00;96675.03;4518802;31;20102;-77
2022/12/10 05:55:46;;;;;;;16.50;7.55;;;;;;;4.88;100.00;96671.66;4518320;31;19967;-77
2022/12/10 05:58:13;;;;;;;16.98;7.05;;;;;;;4.21;100.00;96664.19;4518461;31;20083;-78
2022/12/10 06:00:41;;;;;;;16.08;6.68;;;;;;;4.66;100.00;96674.28;4504018;31;20100;-78
2022/12/10 06:03:08;;;;;;;14.80;6.57;;;;;;;4.74;100.00;96671.41;4517239;31;20091;-78
2022/12/10 06:05:39;;;;;;;16.48;7.00;;;;;;;4.64;100.00;96658.19;4518400;31;20405;-78
2022/12/10 06:08:06;;;;;;;16.73;6.62;;;;;;;4.29;100.00;96657.91;4518227;31;20145;-78
2022/12/10 06:10:36;;;;;;;15.98;7.00;;;;;;;4.03;100.00;96678.50;4518064;31;20162;-78
2022/12/10 06:13:04;;;;;;;19.08;7.32;;;;;;;4.42;100.00;96667.63;4519174;31;20087;-78
2022/12/10 06:15:32;;;;;;;17.85;7.28;;;;;;;4.22;100.00;96670.97;4520316;31;20106;-77
2022/12/10 06:17:59;;;;;;;17.33;7.30;;;;;;;4.60;99.94;96680.50;4520371;31;20150;-77
2022/12/10 06:20:26;;;;;;;20.02;7.68;;;;;;;4.41;100.00;96687.22;4519896;31;20163;-77
2022/12/10 06:22:53;;;;;;;17.67;7.15;;;;;;;3.64;100.00;96684.22;4520301;31;20092;-77
2022/12/10 06:25:20;;;;;;;18.87;8.43;;;;;;;3.90;100.00;96667.94;4520307;31;20076;-77
2022/12/10 06:27:47;;;;;;;18.17;8.07;;;;;;;4.11;100.00;96656.06;4520231;31;20091;-77
2022/12/10 06:30:14;;;;;;;19.27;7.75;;;;;;;3.59;100.00;96640.19;4520152;31;20111;-78
2022/12/10 06:32:42;;;;;;;19.00;8.18;;;;;;;3.63;100.00;96636.66;4520026;31;20124;-78
2022/12/10 06:35:10;;;;;;;16.02;6.75;;;;;;;3.89;100.00;96648.41;4520095;31;20144;-78
2022/12/10 06:37:37;;;;;;;17.67;7.32;;;;;;;3.71;100.00;96644.00;4520209;31;20088;-77
2022/12/10 06:40:05;;;;;;;17.25;7.65;;;;;;;3.36;100.00;96637.66;4519958;31;20420;-77
2022/12/10 06:42:32;;;;;;;19.87;8.60;;;;;;;3.32;100.00;96631.87;4505743;31;20146;-77
2022/12/10 06:44:59;;;;;;;20.17;8.75;;;;;;;3.42;100.00;96627.25;4520155;31;20080;-77
2022/12/10 06:47:26;;;;;;;19.85;8.95;;;;;;;3.35;100.00;96649.59;4520119;31;20143;-77
2022/12/10 06:49:53;;;;;;;20.80;9.48;;;;;;;3.57;100.00;96646.25;4519880;31;20460;-78
2022/12/10 06:52:20;;;;;;;18.85;7.43;;;;;;;3.58;100.00;96641.09;4520069;31;20087;-77
2022/12/10 06:54:47;;;;;;;;;;;;;;;3.51;100.00;96638.81;4520259;31;20110;-77
2022/12/10 06:57:14;;;;;;;22.05;9.80;;;;;;;3.66;100.00;96636.53;4519918;31;19972;-77
2022/12/10 06:59:41;;;;;;;21.90;9.30;;;;;;;4.00;100.00;96650.56;4519869;31;20087;-77
2022/12/10 07:02:09;;;;;;;21.23;10.27;;;;;;;3.85;100.00;96653.72;4520050;31;20151;-77
2022/12/10 07:04:36;;;;;;;24.65;10.48;;;;;;;3.34;100.00;96658.12;4519884;31;20468;-77
2022/12/10 07:07:05;;;;;;;22.55;10.75;;;;;;;4.00;100.00;96674.34;4505488;31;20099;-77
2022/12/10 07:09:35;;;;;;;27.15;11.35;;;;;;;4.18;100.00;96687.31;4519876;31;20110;-78
2022/12/10 07:12:02;;;;;;;25.67;11.35;;;;;;;4.39;100.00;96693.28;4519869;31;20132;-77
2022/12/10 07:14:29;;;;;;;27.33;12.60;;;;;;;4.38;100.00;96701.84;4519756;31;20102;-77
2022/12/10 07:16:56;;;;;;;25.23;12.20;;;;;;;4.59;100.00;96696.72;4519772;31;20422;-78
2022/12/10 07:19:23;;;;;;;27.50;12.48;;;;;;;4.75;99.51;96696.06;4519841;31;20096;-78
2022/12/10 07:21:51;;;;;;;25.85;12.07;;;;;;;4.84;100.00;96681.19;4519458;31;20098;-78
2022/12/10 07:24:19;;;;;;;33.17;12.45;;;;;;;5.31;97.60;96686.00;4518951;31;20404;-77
2022/12/10 07:26:46;;;;;;;20.52;9.35;;;;;;;5.25;97.12;96678.63;4519795;31;20549;-78
2022/12/10 07:29:15;;;;;;;20.77;9.50;;;;;;;4.59;100.00;96666.06;4505542;31;20107;-78
2022/12/10 07:31:43;;;;;;;20.30;8.93;;;;;;;4.60;100.00;96661.78;4519777;31;20080;-77
2022/12/10 07:34:10;;;;;;;23.58;10.05;;;;;;;4.58;100.00;96648.25;4519688;31;20076;-78
2022/12/10 07:36:37;;;;;;;18.70;9.18;;;;;;;4.88;99.85;96648.66;4519570;31;20458;-78
2022/12/10 07:39:07;;;;;;;20.65;9.93;;;;;;;4.52;99.00;96648.47;4519704;31;20110;-77
2022/12/10 07:41:34;;;;;;;21.55;10.48;;;;;;;3.89;100.00;96643.31;4518478;31;20091;-77
2022/12/10 07:44:03;;;;;;;22.98;10.43;;;;;;;4.18;100.00;96634.53;4519540;31;20072;-77
2022/12/10 07:46:33;;;;;;;21.50;10.23;;;;;;;4.32;100.00;96631.41;4519517;31;20088;-77
2022/12/10 07:49:01;;;;;;;24.27;11.10;;;;;;;4.90;98.82;96641.78;4519530;31;20451;-77
2022/12/10 07:51:29;;;;;;;22.50;10.75;;;;;;;5.14;98.35;96634.78;4519624;31;20079;-77
2022/12/10 07:53:56;;;;;;;22.77;10.80;;;;;;;5.27;97.94;96633.34;4519551;31;20072;-77
2022/12/10 07:56:24;;;;;;;20.15;9.23;;;;;;;5.83;94.42;96642.72;4518240;31;20510;-78
2022/12/10 07:58:52;;;;;;;22.75;11.10;;;;;;;6.28;89.34;96644.91;4519546;31;20611;-77
2022/12/10 08:01:23;;;;;;;21.10;10.23;;;;;;;6.51;87.66;96655.78;4505267;31;20127;-77
2022/12/10 08:03:51;;;;;;;19.62;9.57;;;;;;;6.23;88.72;96661.41;4519353;31;20365;-77
2022/12/10 08:06:20;;;;;;;22.70;10.00;;;;;;;5.57;91.66;96655.91;4505576;31;20099;-77
2022/12/10 08:08:47;;;;;;;19.70;9.45;;;;;;;5.33;95.13;96655.28;4519404;31;20091;-78
2022/12/10 08:11:16;;;;;;;23.55;10.48;;;;;;;5.27;95.75;96663.19;4519330;31;20092;-78
2022/12/10 08:13:44;;;;;;;22.02;9.85;;;;;;;5.33;95.20;96673.16;4519329;31;20099;-78
2022/12/10 08:16:16;;;;;;;22.40;10.20;;;;;;;5.25;95.23;96665.00;4519342;31;20482;-78
2022/12/10 08:18:44;;;;;;;21.42;10.63;;;;;;;5.33;95.90;96661.22;4505098;31;20115;-78
2022/12/10 08:21:15;;;;;;;21.55;10.38;;;;;;;4.93;98.54;96665.47;4517913;31;20084;-78
2022/12/10 08:23:42;;;;;;;23.08;10.82;;;;;;;5.38;96.28;96674.62;4519428;31;20502;-78
2022/12/10 08:26:17;;;;;;;21.62;9.68;;;;;;;5.11;98.45;96673.28;4519374;31;20690;-78
2022/12/10 08:28:45;;;;;;;22.20;10.07;;;;;;;5.49;96.01;96680.09;4519496;31;20099;-78
2022/12/10 08:31:14;;;;;;;22.65;10.27;;;;;;;5.88;92.82;96683.50;4519157;31;20490;-78
2022/12/10 08:33:41;;;;;;;23.77;10.60;;;;;;;5.26;95.75;96694.78;4504765;31;20067;-78
2022/12/10 08:36:10;;;;;;;20.77;10.07;;;;;;;5.28;94.50;96701.47;4519171;31;20502;-78
2022/12/10 08:38:37;;;;;;;19.65;9.25;;;;;;;5.01;97.53;96698.41;4519246;31;20083;-78
2022/12/10 08:41:09;;;;;;;21.62;9.52;;;;;;;4.95;97.71;96696.09;4519033;31;20110;-78
2022/12/10 08:43:37;;;;;;;21.17;10.20;;;;;;;5.02;98.09;96694.94;4519292;31;20098;-78
2022/12/10 08:46:04;;;;;;;23.15;10.65;;;;;;;5.39;95.33;96709.53;4504897;31;20101;-78
2022/12/10 08:48:31;;;;;;;20.17;9.05;;;;;;;5.37;96.04;96710.50;4505030;31;20103;-78
2022/12/10 08:50:58;;;;;;;21.77;10.45;;;;;;;5.58;94.17;96701.88;4519009;31;20140;-78
2022/12/10 08:53:25;;;;;;;22.17;10.55;;;;;;;5.27;97.70;96699.81;4519212;31;20072;-78
2022/12/10 08:55:53;;;;;;;21.62;10.40;;;;;;;5.74;94.70;96694.34;4519120;31;20148;-78
2022/12/10 08:58:20;;;;;;;20.55;9.77;;;;;;;5.40;95.82;96689.88;4519170;31;20087;-78
2022/12/10 09:00:48;;;;;;;25.10;11.40;;;;;;;5.41;96.14;96681.31;4504667;31;20087;-78
2022/12/10 09:03:16;;;;;;;21.52;10.80;;;;;;;5.99;93.44;96682.12;4519038;31;20099;-78
2022/12/10 09:05:43;;;;;;;25.17;11.80;;;;;;;5.90;93.50;96674.00;4519055;31;20103;-78
2022/12/10 09:08:10;;;;;;;23.35;10.57;;;;;;;5.52;96.17;96671.44;4519001;31;20091;-78
2022/12/10 09:10:38;;;;;;;24.33;11.30;;;;;;;5.30;97.79;96657.94;4518862;31;20102;-78
2022/12/10 09:13:05;;;;;;;24.05;11.35;;;;;;;5.79;94.98;96657.41;4517826;31;20079;-78
2022/12/10 09:15:32;;;;;;;21.98;10.40;;;;;;;5.72;94.74;96650.91;4504867;31;20108;-78
2022/12/10 09:17:59;;;;;;;23.40;11.95;;;;;;;5.78;94.65;96642.97;4518973;31;20095;-78
2022/12/10 09:20:26;;;;;;;24.33;11.90;;;;;;;5.87;93.88;96638.31;4518554;31;20079;-78
2022/12/10 09:22:53;;;;;;;24.90;11.57;;;;;;;5.62;95.71;96636.03;4518772;31;20517;-78
2022/12/10 09:25:21;;;;;;;23.73;10.95;;;;;;;4.89;100.00;96642.66;4518829;31;20110;-78
2022/12/10 09:27:48;;;;;;;24.85;12.37;;;;;;;5.33;97.87;96638.19;4504593;31;20107;-78
2022/12/10 09:30:16;;;;;;;24.95;11.45;;;;;;;5.35;96.95;96645.78;4518627;31;20096;-78
2022/12/10 09:32:43;;;;;;;23.58;11.10;;;;;;;5.09;98.00;96647.75;4518884;31;20460;-78
2022/12/10 09:35:10;;;;;;;27.10;11.55;;;;;;;4.86;99.63;96640.22;4504453;31;20104;-77
2022/12/10 09:37:36;;;;;;;25.37;12.30;;;;;;;4.69;100.00;96635.84;4504395;31;20159;-78
2022/12/10 09:40:04;;;;;;;25.33;11.68;;;;;;;4.70;100.00;96624.72;4518554;31;20083;-77
2022/12/10 09:42:34;;;;;;;22.95;10.32;;;;;;;4.42;100.00;96625.03;4518621;31;20071;-77
2022/12/10 09:45:09;;;;;;;25.92;11.70;;;;;;;4.47;100.00;96622.31;4518598;31;20096;-77
2022/12/10 09:47:40;;;;;;;24.73;12.30;;;;;;;4.30;100.00;96622.97;4518001;31;20087;-77
2022/12/10 09:50:19;;;;;;;26.52;12.80;;;;;;;4.70;100.00;96636.69;4518366;31;20087;-77
2022/12/10 09:52:47;;;;;;;27.55;12.37;;;;;;;4.83;99.67;96642.94;4517363;31;20095;-78
2022/12/10 09:55:18;;;;;;;29.15;12.80;;;;;;;4.88;100.00;96639.28;4517282;31;20149;-77
2022/12/10 09:57:51;;;;;;;25.65;12.27;;;;;;;5.15;98.27;96631.31;4504227;31;20108;-77
2022/12/10 10:00:32;;;;;;;28.50;12.98;;;;;;;5.44;95.40;96638.53;4517248;31;20195;-77
2022/12/10 10:03:00;;;;;;;28.23;13.25;;;;;;;5.41;95.50;96636.09;4518276;31;20079;-77
2022/12/10 10:05:35;;;;;;;28.00;12.37;;;;;;;5.71;93.98;96635.62;4518398;31;20080;-78
2022/12/10 10:08:25;;;;;;;28.00;12.40;;;;;;;5.21;96.43;96642.13;4517218;31;20087;-77
2022/12/10 10:10:52;;;;;;;28.58;12.48;;;;;;;5.69;93.00;96643.38;4518067;31;20155;-78
2022/12/10 10:13:28;;;;;;;24.95;12.50;;;;;;;6.03;91.65;96637.56;4518221;31;20080;-78
2022/12/10 10:15:54;;;;;;;26.87;13.20;;;;;;;6.12;90.81;96635.47;4517982;31;20084;-77
2022/12/10 10:18:31;;;;;;;28.15;13.77;;;;;;;5.84;91.63;96636.72;4518072;31;20083;-77
2022/12/10 10:20:59;;;;;;;26.52;13.60;;;;;;;5.62;93.33;96636.88;4517792;31;20155;-77
2022/12/10 10:23:25;;;;;;;28.17;12.65;;;;;;;5.69;92.99;96632.31;4517902;31;20559;-77
2022/12/10 10:25:52;;;;;;;27.02;12.50;;;;;;;5.83;92.73;96627.38;4518057;31;20459;-77
2022/12/10 10:28:22;;;;;;;25.27;12.37;;;;;;;5.81;92.74;96629.19;4517937;31;20084;-77
2022/12/10 10:30:50;;;;;;;25.77;12.68;;;;;;;5.62;93.99;96625.81;4503399;31;20147;-77
2022/12/10 10:33:17;;;;;;;23.02;11.73;;;;;;;5.68;94.05;96618.69;4517928;31;20068;-77
2022/12/10 10:35:53;;;;;;;24.25;11.75;;;;;;;5.63;94.32;96635.13;4517787;31;20088;-77
2022/12/10 10:38:26;;;;;;;28.15;13.77;;;;;;;5.40;95.49;96623.38;4503563;31;20160;-77
2022/12/10 10:41:01;;;;;;;26.08;12.50;;;;;;;5.42;96.14;96622.44;4516478;31;20106;-77
2022/12/10 10:43:33;;;;;;;26.75;12.85;;;;;;;5.43;96.08;96623.28;4503437;31;20075;-77
2022/12/10 10:46:06;;;;;;;28.45;13.25;;;;;;;5.50;96.20;96619.50;4517774;31;20510;-77
2022/12/10 10:48:33;;;;;;;25.52;12.27;;;;;;;5.28;96.92;96618.81;4516607;31;20480;-77
2022/12/10 10:51:12;;;;;;;25.15;11.02;;;;;;;5.11;96.99;96611.91;4517395;31;20095;-77
2022/12/10 10:53:39;;;;;;;22.98;11.15;;;;;;;4.78;99.49;96609.87;4517599;31;20144;-77
2022/12/10 10:56:16;;;;;;;;;;;;;;;5.17;98.75;96598.84;4517756;31;20140;-77
2022/12/10 10:59:17;;;;;;;24.70;11.85;;;;;;;5.30;97.22;96594.84;4518710;31;20007;-77
2022/12/10 11:01:44;;;;;;;24.90;11.65;;;;;;;4.93;99.94;96580.31;4519992;31;20094;-77
2022/12/10 11:04:13;;;;;;;26.00;12.30;;;;;;;4.97;99.34;96576.69;4519823;31;20182;-77
2022/12/10 11:06:41;;;;;;;26.15;11.93;;;;;;;4.87;99.96;96567.78;4505508;31;20761;-77
2022/12/10 11:09:08;;;;;;;24.77;10.93;;;;;;;4.37;100.00;96567.41;4505518;31;20096;-77
2022/12/10 11:11:40;;;;;;;25.00;11.88;;;;;;;4.27;100.00;96557.56;4518732;31;20091;-77
2022/12/10 11:14:27;;;;;;;24.77;10.88;;;;;;;4.16;100.00;96551.25;4519953;31;20072;-77
2022/12/10 11:17:18;;;;;;;25.98;12.00;;;;;;;4.17;100.00;96545.25;4505477;31;20100;-77
2022/12/10 11:20:03;;;;;;;28.12;14.13;;;;;;;4.32;100.00;96547.97;4519655;31;20091;-77
2022/12/10 11:22:32;;;;;;;25.95;12.57;;;;;;;4.70;100.00;96550.63;4505349;31;20110;-77
2022/12/10 11:24:59;;;;;;;24.92;11.82;;;;;;;4.21;100.00;96542.47;4519773;31;20071;-77
2022/12/10 11:27:32;;;;;;;28.60;11.18;;;;;;;4.31;100.00;96533.56;4518582;31;20115;-77
2022/12/10 11:30:05;;;;;;;25.37;11.98;;;;;;;4.23;100.00;96529.66;4519609;31;20091;-77
2022/12/10 11:33:00;;;;;;;27.95;11.93;;;;;;;4.31;100.00;96531.00;4505342;31;20126;-77
2022/12/10 11:35:43;;;;;;;22.50;9.88;;;;;;;4.27;100.00;96531.19;4505541;31;20140;-77
2022/12/10 11:38:25;;;;;;;31.80;14.50;;;;;;;4.34;100.00;96537.69;4505461;31;20119;-77
2022/12/10 11:40:57;;;;;;;26.02;12.50;;;;;;;4.17;100.00;96523.09;4518258;31;20099;-77
2022/12/10 11:43:28;;;;;;;26.42;11.98;;;;;;;4.39;100.00;96520.47;4519674;31;20079;-77
2022/12/10 11:46:07;;;;;;;25.27;11.98;;;;;;;4.49;100.00;96516.63;4505346;31;20481;-77
2022/12/10 11:49:00;;;;;;;25.30;11.10;;;;;;;4.73;100.00;96517.28;4519680;31;20441;-77
2022/12/10 11:51:35;;;;;;;23.87;12.27;;;;;;;4.43;100.00;96513.50;4505445;31;20108;-77
2022/12/10 11:54:44;;;;;;;25.25;12.32;;;;;;;4.31;100.00;96517.41;4519488;31;20442;-77